SBMN/MAO METAR and TAF weather

Enter ICAO airport designator
Station Type Date Time Source
SBMN METAR 2024/04/18 08:00 UTC NOAA

SBMN 180800Z 31002KT 9999 FEW006 SCT080 26/25 Q1009


Station Type Date Time Source
SBMN Decoded METAR 2024/04/18 08:00 UTC NOAA

Manaus Aeroporto , Brazil (SBMN) 03-09S 059-59W 84M
Apr 18, 2024 - 04:00 AM EDT / 2024.04.18 0800 UTC
Wind: from the NW (310 degrees) at 2 MPH (2 KT):0
Visibility: greater than 7 mile(s):0
Sky conditions: partly cloudy
Temperature: 78 F (26 C)
Dew Point: 77 F (25 C)
Relative Humidity: 94%
Pressure (altimeter): 29.80 in. Hg (1009 hPa)
ob: SBMN 180800Z 31002KT 9999 FEW006 SCT080 26/25 Q1009
cycle: 8

Station Type Date Time Source
SBMN TAF 2024/04/18 06:12 UTC NOAA